»·PEaware :: SWA407 KDEN-KLAS

SWA407 :: KDEN-KLAS

FLIGHT INFORMATION

Flight Status: Arrived
Operator:
Southwest Airlines
More flights by this operator :: More flights under this callsign
Pilot: Cody B. (17747)
Aircraft: BOEING 737-800
(B738)
More flights by this aircraft type
Origin: KDEN Denver Intl
United States
Destination: KLAS McCarran Intl
United States
More flights between these airports :: More routes between these airports
Route: ROCKI3 DBL HVE GGAPP SITEE3
File this flight plan on PilotEdge
Remarks:
Altitude:
(Current/Filed)
36,000ft
Speed:
(Current/Filed)
461kts
Departed: 30-Jul-18 08:31 PM
Arrived: 30-Jul-18 10:00 PM
Distance/Time
Traveled:
545nm/1:29
Distance/Time
To Go:
Arrived

Flight Plot

Page will automatically refresh every two minutes.

Flight plan parsing failed; only flown route is shown


Map Options




Map Legend


Flown Route
Filed Route
Departure Airport
Arrival Airport
Navaid (VOR, NDB)
Fix

Horizontal Profiles

Position Reports

Time Latitude Longitude Heading Altitude Ground
Speed
30-Jul-18 19:39 39.863577 -104.672332 180 5442ft 0kts
30-Jul-18 19:40 39.863577 -104.672332 180 5442ft 0kts
30-Jul-18 19:41 39.863577 -104.672332 180 5442ft 0kts
30-Jul-18 19:42 39.863577 -104.672332 180 5442ft 0kts
30-Jul-18 19:43 39.863577 -104.672332 180 5442ft 0kts
30-Jul-18 19:44 39.863577 -104.672332 180 5442ft 0kts
30-Jul-18 19:45 39.863577 -104.672332 180 5442ft 0kts
30-Jul-18 19:46 39.863577 -104.672332 180 5442ft 0kts
30-Jul-18 19:47 39.863577 -104.672332 180 5442ft 0kts
30-Jul-18 19:48 39.863577 -104.672332 180 5442ft 0kts
30-Jul-18 19:49 39.863577 -104.672332 180 5442ft 0kts
30-Jul-18 19:50 39.863577 -104.672332 180 5442ft 0kts
30-Jul-18 19:51 39.863577 -104.672332 180 5442ft 0kts
30-Jul-18 19:52 39.863577 -104.672332 180 5442ft 0kts
30-Jul-18 19:53 39.863577 -104.672332 180 5442ft 0kts
30-Jul-18 19:54 39.863577 -104.672332 180 5442ft 0kts
30-Jul-18 19:55 39.863577 -104.672332 180 5442ft 0kts
30-Jul-18 19:56 39.863577 -104.672332 180 5442ft 0kts
30-Jul-18 19:57 39.863577 -104.672332 180 5442ft 0kts
30-Jul-18 19:58 39.863577 -104.672332 180 5442ft 0kts
30-Jul-18 19:59 39.863577 -104.672332 180 5442ft 0kts
30-Jul-18 20:00 39.863577 -104.672332 180 5442ft 0kts
30-Jul-18 20:01 39.863577 -104.672332 180 5442ft 0kts
30-Jul-18 20:02 39.863577 -104.672332 180 5442ft 0kts
30-Jul-18 20:03 39.863577 -104.672332 180 5442ft 0kts
30-Jul-18 20:04 39.863577 -104.672332 180 5442ft 0kts
30-Jul-18 20:05 39.863577 -104.672332 180 5442ft 0kts
30-Jul-18 20:06 39.863577 -104.672332 180 5442ft 0kts
30-Jul-18 20:07 39.863577 -104.672332 180 5442ft 0kts
30-Jul-18 20:08 39.863577 -104.672332 180 5442ft 0kts
30-Jul-18 20:09 39.863577 -104.672332 180 5442ft 0kts
30-Jul-18 20:10 39.863577 -104.672332 180 5442ft 0kts
30-Jul-18 20:11 39.863577 -104.672332 180 5442ft 0kts
30-Jul-18 20:12 39.863577 -104.672332 180 5442ft 0kts
30-Jul-18 20:13 39.863577 -104.672332 180 5442ft 0kts
30-Jul-18 20:14 39.863577 -104.672332 180 5442ft 0kts
30-Jul-18 20:15 39.863827 -104.672331 180 5442ft 2kts
30-Jul-18 20:16 39.864424 -104.672328 180 5442ft 2kts
30-Jul-18 20:17 39.864719 -104.672019 269 5442ft 0kts
30-Jul-18 20:18 39.864719 -104.672020 269 5442ft 0kts
30-Jul-18 20:19 39.864719 -104.672020 269 5442ft 0kts
30-Jul-18 20:20 39.864719 -104.672037 269 5442ft 0kts
30-Jul-18 20:21 39.864721 -104.673218 270 5442ft 7kts
30-Jul-18 20:22 39.864725 -104.675174 270 5442ft 8kts
30-Jul-18 20:23 39.864763 -104.678203 270 5442ft 7kts
30-Jul-18 20:24 39.864678 -104.681286 241 5442ft 9kts
30-Jul-18 20:25 39.864239 -104.682715 271 5442ft 0kts
30-Jul-18 20:26 39.864247 -104.683540 269 5442ft 4kts
30-Jul-18 20:27 39.864255 -104.685525 270 5442ft 0kts
30-Jul-18 20:28 39.864255 -104.685525 270 5442ft 0kts
30-Jul-18 20:29 39.864255 -104.685601 270 5442ft 1kts
30-Jul-18 20:30 39.864260 -104.686842 272 5442ft 2kts
30-Jul-18 20:31 39.864637 -104.687036 356 5442ft 7kts
30-Jul-18 20:32 39.896282 -104.687036 356 5904ft 193kts
30-Jul-18 20:33 39.930878 -104.737020 254 7194ft 268kts
30-Jul-18 20:34 39.906995 -104.834811 252 9483ft 295kts
30-Jul-18 20:35 39.881147 -104.939378 253 11633ft 321kts
30-Jul-18 20:36 39.854009 -105.048868 255 14417ft 325kts
30-Jul-18 20:37 39.825590 -105.163087 255 16790ft 340kts
30-Jul-18 20:38 39.796010 -105.282051 255 18947ft 356kts
30-Jul-18 20:39 39.765029 -105.405247 256 21093ft 365kts
30-Jul-18 20:40 39.733140 -105.531463 256 23042ft 374kts
30-Jul-18 20:41 39.700584 -105.659746 256 24864ft 381kts
30-Jul-18 20:42 39.672215 -105.792679 262 26593ft 385kts
30-Jul-18 20:43 39.644452 -105.927641 262 28165ft 391kts
30-Jul-18 20:44 39.615963 -106.064693 262 29586ft 397kts
30-Jul-18 20:45 39.587139 -106.202165 262 31221ft 393kts
30-Jul-18 20:46 39.558699 -106.336956 262 32759ft 386kts
30-Jul-18 20:47 39.530501 -106.469994 262 34083ft 381kts
30-Jul-18 20:48 39.502572 -106.600789 263 35220ft 376kts
30-Jul-18 20:49 39.474931 -106.729345 262 36185ft 374kts
30-Jul-18 20:50 39.446432 -106.861701 261 36368ft 394kts
30-Jul-18 20:51 39.412358 -107.001374 257 36417ft 418kts
30-Jul-18 20:52 39.372381 -107.142635 257 36547ft 420kts
30-Jul-18 20:53 39.332449 -107.283740 256 36674ft 419kts
30-Jul-18 20:54 39.292660 -107.424967 256 36672ft 419kts
30-Jul-18 20:55 39.253113 -107.565924 256 36676ft 419kts
30-Jul-18 20:56 39.213781 -107.706731 256 36611ft 422kts
30-Jul-18 20:57 39.174277 -107.848699 256 36335ft 421kts
30-Jul-18 20:58 39.135053 -107.990502 256 36231ft 422kts
30-Jul-18 20:59 39.095937 -108.132325 256 36230ft 421kts
30-Jul-18 21:00 39.057038 -108.274131 256 36180ft 420kts
30-Jul-18 21:01 39.018470 -108.415324 256 36179ft 419kts
30-Jul-18 21:02 38.980122 -108.556363 256 36174ft 419kts
30-Jul-18 21:03 38.942972 -108.693536 256 36193ft 420kts
30-Jul-18 21:04 38.904771 -108.835146 255 36187ft 419kts
30-Jul-18 21:05 38.867332 -108.974602 256 36182ft 418kts
30-Jul-18 21:06 38.829664 -109.115562 256 36132ft 419kts
30-Jul-18 21:07 38.792186 -109.256414 256 36131ft 419kts
30-Jul-18 21:08 38.755109 -109.396457 256 36132ft 416kts
30-Jul-18 21:09 38.718342 -109.535906 257 36128ft 415kts
30-Jul-18 21:10 38.681964 -109.674481 256 36139ft 415kts
30-Jul-18 21:11 38.645471 -109.813947 256 36132ft 413kts
30-Jul-18 21:12 38.609206 -109.953269 256 36136ft 413kts
30-Jul-18 21:13 38.573215 -110.092152 256 36135ft 413kts
30-Jul-18 21:14 38.537294 -110.231424 256 36154ft 413kts
30-Jul-18 21:15 38.501584 -110.370392 256 36152ft 412kts
30-Jul-18 21:16 38.466001 -110.509586 256 36151ft 412kts
30-Jul-18 21:17 38.430676 -110.648025 257 36151ft 412kts
30-Jul-18 21:18 38.373788 -110.773945 237 36161ft 425kts
30-Jul-18 21:19 38.301874 -110.891644 237 36154ft 423kts
30-Jul-18 21:20 38.229880 -111.009751 237 36155ft 422kts
30-Jul-18 21:21 38.158619 -111.126439 237 36153ft 423kts
30-Jul-18 21:22 38.086494 -111.244206 237 36156ft 423kts
30-Jul-18 21:23 38.014610 -111.361400 236 36153ft 421kts
30-Jul-18 21:24 37.942882 -111.477671 236 36412ft 421kts
30-Jul-18 21:25 37.883418 -111.573926 236 36431ft 420kts
30-Jul-18 21:26 37.801054 -111.706788 236 36442ft 418kts
30-Jul-18 21:27 37.729482 -111.821739 235 36443ft 412kts
30-Jul-18 21:28 37.658611 -111.935057 235 36439ft 414kts
30-Jul-18 21:29 37.599671 -112.029155 236 36440ft 414kts
30-Jul-18 21:30 37.531487 -112.138136 238 36437ft 413kts
30-Jul-18 21:31 37.462416 -112.280976 242 36432ft 409kts
30-Jul-18 21:32 37.413802 -112.382779 242 36436ft 408kts
30-Jul-18 21:33 37.355268 -112.504720 242 36433ft 408kts
30-Jul-18 21:34 37.296519 -112.626592 242 36302ft 409kts
30-Jul-18 21:35 37.238070 -112.747125 241 36049ft 413kts
30-Jul-18 21:36 37.177967 -112.870709 241 35078ft 419kts
30-Jul-18 21:37 37.116768 -112.996025 241 34106ft 426kts
30-Jul-18 21:38 37.054355 -113.123340 241 33127ft 434kts
30-Jul-18 21:39 36.990878 -113.252406 241 32124ft 436kts
30-Jul-18 21:40 36.927339 -113.380952 240 31104ft 435kts
30-Jul-18 21:41 36.864771 -113.507099 240 30107ft 432kts
30-Jul-18 21:42 36.801899 -113.633519 240 28812ft 431kts
30-Jul-18 21:43 36.741494 -113.754432 239 26333ft 414kts
30-Jul-18 21:44 36.681977 -113.873187 238 23886ft 398kts
30-Jul-18 21:45 36.624603 -113.987235 238 21556ft 384kts
30-Jul-18 21:46 36.568635 -114.097908 238 19315ft 379kts
30-Jul-18 21:47 36.512108 -114.208639 238 16934ft 380kts
30-Jul-18 21:48 36.456329 -114.317514 237 14747ft 373kts
30-Jul-18 21:49 36.400593 -114.425971 237 12582ft 372kts
30-Jul-18 21:50 36.348363 -114.528296 244 11185ft 317kts
30-Jul-18 21:51 36.305143 -114.615732 233 10179ft 295kts
30-Jul-18 21:52 36.237135 -114.658633 198 9453ft 281kts
30-Jul-18 21:53 36.163268 -114.689880 198 8789ft 282kts
30-Jul-18 21:54 36.093413 -114.727688 224 8079ft 276kts
30-Jul-18 21:55 36.074906 -114.812836 267 6855ft 245kts
30-Jul-18 21:56 36.073743 -114.892780 270 5052ft 228kts
30-Jul-18 21:57 36.073696 -114.966198 270 3771ft 185kts
30-Jul-18 21:58 36.073666 -115.024520 270 3793ft 173kts
30-Jul-18 21:59 36.073708 -115.080370 272 2945ft 159kts
30-Jul-18 22:00 36.073610 -115.132674 271 2189ft 133kts
30-Jul-18 22:01 36.074073 -115.144550 300 2189ft 11kts
30-Jul-18 22:02 36.074808 -115.146108 302 2189ft 6kts
30-Jul-18 22:03 36.076471 -115.146552 1 2189ft 4kts
30-Jul-18 22:04 36.077682 -115.145107 92 2189ft 0kts
30-Jul-18 22:05 36.078283 -115.142683 89 2189ft 0kts
30-Jul-18 22:06 36.078283 -115.142683 89 2189ft 0kts
30-Jul-18 22:07 36.077784 -115.141655 197 2189ft 9kts
30-Jul-18 22:08 36.077721 -115.146375 276 2189ft 14kts
30-Jul-18 22:09 36.079626 -115.147632 34 2189ft 0kts
30-Jul-18 22:10 36.079935 -115.147101 56 2189ft 0kts
30-Jul-18 22:11 36.079927 -115.147115 56 2189ft 0kts
30-Jul-18 22:12 36.079927 -115.147115 56 2189ft 0kts
30-Jul-18 22:13 36.079927 -115.147115 56 2189ft 0kts

Navigation Log

Ident Type
Flight plan parsing failed, navigation log unavailable